Time;durP1;ratioP1;P1;durP2;ratioP2;P2;SDS_P1;SDS_P2;PMS_P1;PMS_P2;Temp;Humidity;BMP_temperature;BMP_pressure;BME280_temperature;BME280_humidity;BME280_pressure;Samples;Min_cycle;Max_cycle;Signal;HPM_P1;HPM_P2
2023/05/09 00:00:37;;;;;;;1999.90;999.90;;;15.50;99.90;;;;;;5055545;28;20032;-73
2023/05/09 00:03:04;;;;;;;1999.90;999.90;;;15.50;99.90;;;;;;5055506;28;20025;-73
2023/05/09 00:05:30;;;;;;;1999.90;999.90;;;15.50;99.90;;;;;;5055510;28;20404;-81
2023/05/09 00:07:56;;;;;;;1999.90;999.90;;;15.50;99.90;;;;;;5055141;28;20017;-81
2023/05/09 00:10:22;;;;;;;1999.90;999.90;;;15.50;99.90;;;;;;5055334;28;20483;-81
2023/05/09 00:12:48;;;;;;;1999.90;999.90;;;15.50;99.90;;;;;;5055255;28;20075;-80
2023/05/09 00:15:14;;;;;;;1999.90;999.90;;;15.50;99.90;;;;;;5042562;28;20415;-73
2023/05/09 00:17:40;;;;;;;1999.90;999.90;;;15.50;99.90;;;;;;5035117;28;20488;-73
2023/05/09 00:20:10;;;;;;;1999.90;999.90;;;15.50;99.90;;;;;;5034268;28;20293;-81
2023/05/09 00:22:36;;;;;;;1999.90;999.90;;;15.50;99.90;;;;;;5035340;28;20392;-73
2023/05/09 00:25:02;;;;;;;1999.90;999.90;;;15.50;99.90;;;;;;5035193;28;20029;-81
2023/05/09 00:27:29;;;;;;;1999.90;999.90;;;15.50;99.90;;;;;;5035303;28;20026;-81
2023/05/09 00:29:55;;;;;;;1999.90;999.90;;;15.50;99.90;;;;;;5035044;28;20026;-73
2023/05/09 00:32:21;;;;;;;1999.90;999.90;;;15.50;99.90;;;;;;5034910;28;20075;-82
2023/05/09 00:34:46;;;;;;;1999.90;999.90;;;15.50;99.90;;;;;;5034932;28;20058;-74
2023/05/09 00:37:12;;;;;;;1999.90;999.90;;;15.50;99.90;;;;;;5035110;28;20025;-81
2023/05/09 00:39:38;;;;;;;1999.90;999.90;;;15.50;99.90;;;;;;5035055;28;20025;-82
2023/05/09 00:42:03;;;;;;;1999.90;999.90;;;15.60;99.90;;;;;;5034520;28;20029;-74
2023/05/09 00:44:29;;;;;;;1999.90;999.90;;;15.50;99.90;;;;;;5039088;28;20047;-74
2023/05/09 00:46:55;;;;;;;1999.90;999.90;;;15.50;99.90;;;;;;5054733;28;20032;-81
2023/05/09 00:49:20;;;;;;;1999.90;999.90;;;15.50;99.90;;;;;;5054376;28;20035;-81
2023/05/09 00:51:47;;;;;;;1999.90;999.90;;;15.50;99.90;;;;;;5054599;28;20032;-80
2023/05/09 00:54:13;;;;;;;1999.90;999.90;;;15.50;99.90;;;;;;5053298;28;20059;-73
2023/05/09 00:56:38;;;;;;;1999.90;999.90;;;15.50;99.90;;;;;;5054258;28;20107;-73
2023/05/09 00:59:05;;;;;;;1999.90;999.90;;;15.60;99.90;;;;;;5054373;28;20040;-81
2023/05/09 01:01:31;;;;;;;1999.90;999.90;;;15.60;99.90;;;;;;5054024;28;20033;-81
2023/05/09 01:03:57;;;;;;;1999.90;999.90;;;15.60;99.90;;;;;;5054473;28;20112;-81
2023/05/09 01:06:47;;;;;;;1999.90;999.90;;;15.60;99.90;;;;;;5054330;28;20036;-73
2023/05/09 01:09:25;;;;;;;1999.90;999.90;;;15.60;99.90;;;;;;5053936;28;20037;-73
2023/05/09 01:12:12;;;;;;;1999.90;999.90;;;15.50;99.90;;;;;;5054293;28;20387;-81
2023/05/09 01:14:55;;;;;;;1999.90;999.90;;;15.50;99.90;;;;;;5046488;28;20021;-81
2023/05/09 01:17:33;;;;;;;1999.90;999.90;;;15.60;99.90;;;;;;5034579;28;20025;-81
2023/05/09 01:20:09;;;;;;;1999.90;999.90;;;15.60;99.90;;;;;;5033228;28;20028;-73
2023/05/09 01:22:37;;;;;;;1999.90;999.90;;;15.60;99.90;;;;;;5033448;28;20018;-73
2023/05/09 01:25:09;;;;;;;1999.90;999.90;;;15.60;99.90;;;;;;5034010;28;20040;-81
2023/05/09 01:27:47;;;;;;;1999.90;999.90;;;15.60;99.90;;;;;;5033819;28;20022;-73
2023/05/09 01:30:15;;;;;;;1999.90;999.90;;;15.60;99.90;;;;;;5033680;28;20034;-73
2023/05/09 01:32:45;;;;;;;1999.90;999.90;;;15.60;99.90;;;;;;5033583;28;20476;-81
2023/05/09 01:35:13;;;;;;;1999.90;999.90;;;15.60;99.90;;;;;;5033863;28;20029;-73
2023/05/09 01:37:42;;;;;;;1999.90;999.90;;;15.60;99.90;;;;;;5033609;28;20377;-81
2023/05/09 01:40:14;;;;;;;1999.90;999.90;;;15.60;99.90;;;;;;5033891;28;20028;-81
2023/05/09 01:42:51;;;;;;;1999.90;999.90;;;15.50;99.90;;;;;;5033404;28;20026;-81
2023/05/09 01:45:19;;;;;;;1999.90;999.90;;;15.60;99.90;;;;;;5044444;28;20044;-81
2023/05/09 01:47:47;;;;;;;1999.90;999.90;;;15.60;99.90;;;;;;5053613;28;20124;-81
2023/05/09 01:50:16;;;;;;;1999.90;999.90;;;15.60;99.90;;;;;;5053056;28;20516;-73
2023/05/09 01:52:42;;;;;;;1999.90;999.90;;;15.60;99.90;;;;;;5052932;28;20085;-82
2023/05/09 01:55:09;;;;;;;1999.90;999.90;;;15.60;99.90;;;;;;5052621;28;20056;-82
2023/05/09 01:57:36;;;;;;;1999.90;999.90;;;15.60;99.90;;;;;;5052323;28;20476;-81
2023/05/09 02:00:03;;;;;;;1999.90;999.90;;;15.60;99.90;;;;;;5052618;28;20032;-73
2023/05/09 02:02:29;;;;;;;1999.90;999.90;;;15.60;99.90;;;;;;5052616;28;20028;-73
2023/05/09 02:04:56;;;;;;;1999.90;999.90;;;15.60;99.90;;;;;;5052374;28;20047;-73
2023/05/09 02:07:23;;;;;;;1999.90;999.90;;;15.60;99.90;;;;;;5052472;28;20025;-81
2023/05/09 02:09:52;;;;;;;1999.90;999.90;;;15.60;99.90;;;;;;5051929;28;20475;-74
2023/05/09 02:12:18;;;;;;;1999.90;999.90;;;15.60;99.90;;;;;;5052443;28;20111;-73
2023/05/09 02:14:44;;;;;;;1999.90;999.90;;;15.60;99.90;;;;;;5043624;28;20599;-73
2023/05/09 02:17:10;;;;;;;1999.90;999.90;;;15.30;99.90;;;;;;5032193;28;20104;-80
2023/05/09 02:19:35;;;;;;;1999.90;999.90;;;15.20;99.90;;;;;;5032136;28;20064;-81
2023/05/09 02:22:03;;;;;;;1999.90;999.90;;;15.00;99.90;;;;;;5031306;28;20042;-73
2023/05/09 02:24:32;;;;;;;1999.90;999.90;;;14.90;99.90;;;;;;5032202;28;20032;-73
2023/05/09 02:26:59;;;;;;;1999.90;999.90;;;14.80;99.90;;;;;;5042792;28;20055;-73
2023/05/09 02:29:38;;;;;;;1999.90;999.90;;;14.80;99.90;;;;;;5052274;28;20102;-73
2023/05/09 02:32:15;;;;;;;1999.90;999.90;;;14.80;99.90;;;;;;5051987;28;20083;-81
2023/05/09 02:34:41;;;;;;;1999.90;999.90;;;14.90;99.90;;;;;;5051667;28;20032;-73
2023/05/09 02:37:07;;;;;;;1999.90;999.90;;;14.90;99.90;;;;;;5051910;28;20033;-73
2023/05/09 02:39:33;;;;;;;1999.90;999.90;;;14.90;99.90;;;;;;5051196;28;20095;-73
2023/05/09 02:42:10;;;;;;;1999.90;999.90;;;15.00;99.90;;;;;;5043225;28;20396;-81
2023/05/09 02:44:37;;;;;;;1999.90;999.90;;;15.00;99.90;;;;;;5037391;28;20031;-73
2023/05/09 02:47:04;;;;;;;1999.90;999.90;;;15.00;99.90;;;;;;5051703;28;20372;-82
2023/05/09 02:49:29;;;;;;;1999.90;999.90;;;15.00;99.90;;;;;;5051537;28;20067;-81
2023/05/09 02:51:55;;;;;;;1999.90;999.90;;;15.00;99.90;;;;;;5051976;28;20033;-73
2023/05/09 02:54:21;;;;;;;1999.90;999.90;;;15.00;99.90;;;;;;5010381;28;1210659;-73
2023/05/09 02:56:46;;;;;;;1999.90;999.90;;;15.10;99.90;;;;;;5052524;28;20413;-81
2023/05/09 02:59:12;;;;;;;1999.90;999.90;;;15.10;99.90;;;;;;5052440;28;20433;-73
2023/05/09 03:01:38;;;;;;;1999.90;999.90;;;15.20;99.90;;;;;;5052442;28;20029;-73
2023/05/09 03:04:03;;;;;;;1999.90;999.90;;;15.30;99.90;;;;;;5052409;28;20036;-73
2023/05/09 03:06:29;;;;;;;1999.90;999.90;;;15.30;99.90;;;;;;5052626;28;20056;-73
2023/05/09 03:08:55;;;;;;;1999.90;999.90;;;15.30;99.90;;;;;;5052287;28;20033;-73
2023/05/09 03:11:21;;;;;;;1999.90;999.90;;;15.30;99.90;;;;;;5052213;28;20032;-81
2023/05/09 03:13:47;;;;;;;1999.90;999.90;;;15.30;99.90;;;;;;5051483;28;20420;-80
2023/05/09 03:16:14;;;;;;;1999.90;999.90;;;15.30;99.90;;;;;;5032422;28;20017;-73
2023/05/09 03:18:40;;;;;;;1999.90;999.90;;;15.20;99.90;;;;;;5032562;28;20045;-73
2023/05/09 03:21:05;;;;;;;1999.90;999.90;;;15.20;99.90;;;;;;5032563;28;20489;-73
2023/05/09 03:23:31;;;;;;;1999.90;999.90;;;15.20;99.90;;;;;;5031663;28;20159;-81
2023/05/09 03:25:57;;;;;;;1999.90;999.90;;;15.20;99.90;;;;;;5032288;28;20175;-73
2023/05/09 03:28:22;;;;;;;1999.90;999.90;;;15.20;99.90;;;;;;5032470;28;20032;-81
2023/05/09 03:30:49;;;;;;;1999.90;999.90;;;15.20;99.90;;;;;;5032044;28;20039;-73
2023/05/09 03:33:14;;;;;;;1999.90;999.90;;;15.20;99.90;;;;;;5032596;28;20072;-80
2023/05/09 03:35:40;;;;;;;1999.90;999.90;;;15.20;99.90;;;;;;5032258;28;20067;-81
2023/05/09 03:38:05;;;;;;;1999.90;999.90;;;15.20;99.90;;;;;;5032189;28;20030;-80
2023/05/09 03:40:31;;;;;;;1999.90;999.90;;;15.20;99.90;;;;;;5032397;28;20037;-73
2023/05/09 03:42:57;;;;;;;1999.90;999.90;;;15.20;99.90;;;;;;5031854;28;20037;-73
2023/05/09 03:45:22;;;;;;;1999.90;999.90;;;15.20;99.90;;;;;;5044010;28;20029;-73
2023/05/09 03:47:48;;;;;;;1999.90;999.90;;;15.20;99.90;;;;;;5052138;28;20096;-81
2023/05/09 03:50:13;;;;;;;1999.90;999.90;;;15.20;99.90;;;;;;5051650;28;20029;-81
2023/05/09 03:52:39;;;;;;;1999.90;999.90;;;15.20;99.90;;;;;;5054923;28;20397;-81
2023/05/09 03:55:06;;;;;;;1999.90;999.90;;;15.30;99.90;;;;;;5055512;28;20036;-73
2023/05/09 03:57:33;;;;;;;1999.90;999.90;;;15.30;99.90;;;;;;5055723;28;20040;-81
2023/05/09 03:59:58;;;;;;;1999.90;999.90;;;15.30;99.90;;;;;;5055525;28;20021;-73
2023/05/09 04:02:24;;;;;;;1999.90;999.90;;;15.40;99.90;;;;;;5055477;28;20041;-81
2023/05/09 04:04:51;;;;;;;1999.90;999.90;;;15.40;99.90;;;;;;5055504;28;20100;-80
2023/05/09 04:07:18;;;;;;;1999.90;999.90;;;15.50;99.90;;;;;;5055333;28;20118;-81
2023/05/09 04:09:43;;;;;;;1999.90;999.90;;;15.50;99.90;;;;;;5055325;28;20376;-80
2023/05/09 04:12:09;;;;;;;1999.90;999.90;;;15.50;99.90;;;;;;5055405;28;20031;-73
2023/05/09 04:14:35;;;;;;;1999.90;999.90;;;15.50;99.90;;;;;;5047912;28;20029;-80
2023/05/09 04:17:00;;;;;;;1999.90;999.90;;;15.60;99.90;;;;;;5035395;28;20025;-73
2023/05/09 04:19:26;;;;;;;1999.90;999.90;;;15.60;99.90;;;;;;5034616;28;20116;-79
2023/05/09 04:21:52;;;;;;;1999.90;999.90;;;15.60;99.90;;;;;;5035477;28;20057;-79
2023/05/09 04:24:18;;;;;;;1999.90;999.90;;;15.70;99.90;;;;;;5034468;28;20032;-73
2023/05/09 04:26:44;;;;;;;1999.90;999.90;;;15.70;99.90;;;;;;5035163;28;20095;-79
2023/05/09 04:29:10;;;;;;;1999.90;999.90;;;15.70;99.90;;;;;;5035011;28;20419;-73
2023/05/09 04:31:36;;;;;;;1999.90;999.90;;;15.70;99.90;;;;;;5051282;28;20029;-79
2023/05/09 04:34:02;;;;;;;1999.90;999.90;;;15.80;99.90;;;;;;5054990;28;20044;-73
2023/05/09 04:36:27;;;;;;;1999.90;999.90;;;15.80;99.90;;;;;;5054937;28;20029;-73
2023/05/09 04:38:53;;;;;;;1999.90;999.90;;;15.80;99.90;;;;;;5054780;28;20503;-72
2023/05/09 04:41:18;;;;;;;1999.90;999.90;;;15.80;99.90;;;;;;5051898;28;20083;-79
2023/05/09 04:43:44;;;;;;;1999.90;999.90;;;15.90;99.90;;;;;;5034870;28;20027;-73
2023/05/09 04:46:10;;;;;;;1999.90;999.90;;;15.90;99.90;;;;;;5053239;28;20033;-79
2023/05/09 04:48:36;;;;;;;1999.90;999.90;;;15.90;99.90;;;;;;5054468;28;20491;-73
2023/05/09 04:51:01;;;;;;;1999.90;999.90;;;15.90;99.90;;;;;;5053440;28;20092;-73
2023/05/09 04:53:27;;;;;;;1999.90;999.90;;;16.00;99.90;;;;;;5054508;28;20047;-80
2023/05/09 04:55:53;;;;;;;1999.90;999.90;;;16.00;99.90;;;;;;5054652;28;20052;-80
2023/05/09 04:58:19;;;;;;;1999.90;999.90;;;16.00;99.90;;;;;;5054208;28;20017;-80
2023/05/09 05:00:45;;;;;;;1999.90;999.90;;;16.00;99.90;;;;;;5052809;28;20380;-74
2023/05/09 05:03:11;;;;;;;1999.90;999.90;;;16.10;99.90;;;;;;5053216;28;20037;-73
2023/05/09 05:05:37;;;;;;;1999.90;999.90;;;16.10;99.90;;;;;;5056526;28;20416;-78
2023/05/09 05:08:03;;;;;;;1999.90;999.90;;;16.10;99.90;;;;;;5053218;28;20033;-72
2023/05/09 05:10:29;;;;;;;1999.90;999.90;;;16.10;99.90;;;;;;5053692;28;20456;-73
2023/05/09 05:12:55;;;;;;;1999.90;999.90;;;16.20;99.90;;;;;;5054022;28;20083;-80
2023/05/09 05:15:20;;;;;;;1999.90;999.90;;;16.20;99.90;;;;;;5053745;28;20033;-72
2023/05/09 05:17:46;;;;;;;1999.90;999.90;;;16.20;99.90;;;;;;5053491;28;20025;-74
2023/05/09 05:20:12;;;;;;;1999.90;999.90;;;16.30;99.90;;;;;;5053819;28;20128;-79
2023/05/09 05:22:37;;;;;;;1999.90;999.90;;;16.30;99.90;;;;;;5053742;28;20582;-79
2023/05/09 05:25:04;;;;;;;1999.90;999.90;;;16.30;99.90;;;;;;5052821;28;20025;-79
2023/05/09 05:27:30;;;;;;;1999.90;999.90;;;16.30;99.90;;;;;;5053397;28;20025;-72
2023/05/09 05:29:56;;;;;;;1999.90;999.90;;;16.40;99.90;;;;;;5053330;28;20032;-72
2023/05/09 05:32:21;;;;;;;1999.90;999.90;;;16.40;99.90;;;;;;5053264;28;20407;-78
2023/05/09 05:34:47;;;;;;;1999.90;999.90;;;16.40;99.90;;;;;;5053270;28;20496;-78
2023/05/09 05:37:12;;;;;;;1999.90;999.90;;;16.40;99.90;;;;;;5052578;28;20048;-78
2023/05/09 05:39:38;;;;;;;1999.90;999.90;;;16.50;99.90;;;;;;5046800;28;20040;-73
2023/05/09 05:42:03;;;;;;;1999.90;999.90;;;16.50;99.90;;;;;;5037575;28;20033;-73
2023/05/09 05:44:29;;;;;;;1999.90;999.90;;;16.50;99.90;;;;;;5038689;28;20035;-79
2023/05/09 05:46:54;;;;;;;1999.90;999.90;;;16.60;99.90;;;;;;5063593;28;20025;-79
2023/05/09 05:49:20;;;;;;;1999.90;999.90;;;16.60;99.90;;;;;;5052687;28;20024;-79
2023/05/09 05:51:46;;;;;;;1999.90;999.90;;;16.60;99.90;;;;;;5071898;28;20028;-78
2023/05/09 05:54:11;;;;;;;1999.90;999.90;;;16.60;99.90;;;;;;5072049;28;20506;-72
2023/05/09 05:56:37;;;;;;;1999.90;999.90;;;16.60;99.90;;;;;;5071717;28;20028;-73
2023/05/09 05:59:03;;;;;;;1999.90;999.90;;;16.70;99.90;;;;;;5060655;28;20508;-78
2023/05/09 06:01:28;;;;;;;1999.90;999.90;;;16.70;99.90;;;;;;5047540;28;20078;-74
2023/05/09 06:03:54;;;;;;;1999.90;999.90;;;16.70;99.90;;;;;;5050514;28;20037;-74
2023/05/09 06:06:23;;;;;;;1999.90;999.90;;;16.70;99.90;;;;;;5046938;28;20044;-74
2023/05/09 06:08:49;;;;;;;1999.90;999.90;;;16.70;99.90;;;;;;5049944;28;20113;-74
2023/05/09 06:11:18;;;;;;;1999.90;999.90;;;16.80;99.90;;;;;;5065888;28;20415;-78
2023/05/09 06:13:44;;;;;;;1999.90;999.90;;;16.80;99.90;;;;;;5070305;28;20033;-78
2023/05/09 06:16:09;;;;;;;1999.90;999.90;;;16.80;99.90;;;;;;5045293;28;20103;-73
2023/05/09 06:18:36;;;;;;;1999.90;999.90;;;16.90;99.90;;;;;;5043080;28;20099;-78
2023/05/09 06:21:06;;;;;;;1999.90;999.90;;;16.90;99.90;;;;;;5045955;28;20577;-78
2023/05/09 06:23:31;;;;;;;1999.90;999.90;;;16.90;99.90;;;;;;5042044;28;20195;-78
2023/05/09 06:25:57;;;;;;;1999.90;999.90;;;16.90;99.90;;;;;;5038994;28;20567;-78
2023/05/09 06:28:23;;;;;;;1999.90;999.90;;;16.90;99.90;;;;;;5045876;28;20037;-77
2023/05/09 06:30:48;;;;;;;1999.90;999.90;;;17.00;99.90;;;;;;5048678;28;20025;-79
2023/05/09 06:33:14;;;;;;;1999.90;999.90;;;17.00;99.90;;;;;;5049063;28;20400;-73
2023/05/09 06:35:40;;;;;;;1999.90;999.90;;;17.00;99.90;;;;;;5047750;28;20033;-73
2023/05/09 06:38:06;;;;;;;1999.90;999.90;;;17.00;99.90;;;;;;5046754;28;20065;-79
2023/05/09 06:40:32;;;;;;;1999.90;999.90;;;17.00;99.90;;;;;;5041659;28;20068;-74
2023/05/09 06:42:58;;;;;;;1999.90;999.90;;;17.00;99.90;;;;;;5044720;28;20392;-80
2023/05/09 06:45:23;;;;;;;1999.90;999.90;;;17.00;99.90;;;;;;5053529;28;20511;-74
2023/05/09 06:47:49;;;;;;;1999.90;999.90;;;17.00;99.90;;;;;;5048361;28;20028;-74
2023/05/09 06:50:15;;;;;;;1999.90;999.90;;;17.00;99.90;;;;;;5048943;28;20028;-74
2023/05/09 06:52:40;;;;;;;1999.90;999.90;;;17.00;99.90;;;;;;5038830;28;20060;-81
2023/05/09 06:55:07;;;;;;;1999.90;999.90;;;17.00;99.90;;;;;;5049985;28;20397;-81
2023/05/09 06:57:32;;;;;;;1999.90;999.90;;;17.00;99.90;;;;;;5064480;28;20040;-74
2023/05/09 06:59:58;;;;;;;1999.90;999.90;;;17.00;99.90;;;;;;5049276;28;20029;-74
2023/05/09 07:02:24;;;;;;;1999.90;999.90;;;17.00;99.90;;;;;;5055708;28;20039;-74
2023/05/09 07:04:50;;;;;;;1999.90;999.90;;;17.00;99.90;;;;;;5051935;28;20036;-75
2023/05/09 07:07:16;;;;;;;1999.90;999.90;;;16.90;99.90;;;;;;5049340;28;20491;-81
2023/05/09 07:09:41;;;;;;;1999.90;999.90;;;16.90;99.90;;;;;;5045687;28;20032;-80
2023/05/09 07:12:07;;;;;;;1999.90;999.90;;;16.80;99.90;;;;;;5036010;28;20033;-74
2023/05/09 07:14:32;;;;;;;1999.90;999.90;;;16.70;99.90;;;;;;5047370;28;20025;-72
2023/05/09 07:16:58;;;;;;;1999.90;999.90;;;16.80;99.90;;;;;;5044025;28;20044;-73
2023/05/09 07:19:24;;;;;;;1999.90;999.90;;;16.70;99.90;;;;;;5043624;28;20045;-81
2023/05/09 07:21:49;;;;;;;1999.90;999.90;;;16.70;99.90;;;;;;5039885;28;20839;-81
2023/05/09 07:24:15;;;;;;;1999.90;999.90;;;16.70;99.90;;;;;;5044753;28;20032;-80
2023/05/09 07:26:41;;;;;;;1999.90;999.90;;;16.70;99.90;;;;;;5049828;28;20108;-81
2023/05/09 07:29:06;;;;;;;1999.90;999.90;;;16.70;99.90;;;;;;5053300;28;20741;-80
2023/05/09 07:31:32;;;;;;;1999.90;999.90;;;16.60;99.90;;;;;;5051888;28;20051;-74
2023/05/09 07:33:57;;;;;;;1999.90;999.90;;;16.70;99.90;;;;;;5063143;28;20028;-80
2023/05/09 07:36:23;;;;;;;1999.90;999.90;;;16.70;99.90;;;;;;5053681;28;20029;-74
2023/05/09 07:38:52;;;;;;;1999.90;999.90;;;16.80;99.90;;;;;;5051299;28;20020;-74
2023/05/09 07:41:18;;;;;;;1999.90;999.90;;;16.80;99.90;;;;;;5051331;28;20124;-73
2023/05/09 07:43:44;;;;;;;1999.90;999.90;;;16.70;99.90;;;;;;5040546;28;20108;-77
2023/05/09 07:46:09;;;;;;;1999.90;999.90;;;16.70;99.90;;;;;;5046747;28;20095;-78
2023/05/09 07:48:35;;;;;;;1999.90;999.90;;;16.60;99.90;;;;;;5046275;28;20083;-78
2023/05/09 07:51:01;;;;;;;1999.90;999.90;;;16.60;99.90;;;;;;5058747;28;20032;-78
2023/05/09 07:53:26;;;;;;;1999.90;999.90;;;16.60;99.90;;;;;;5061032;28;20045;-74
2023/05/09 07:55:52;;;;;;;1999.90;999.90;;;16.60;99.90;;;;;;5041269;28;20033;-76
2023/05/09 07:58:18;;;;;;;1999.90;999.90;;;16.60;99.90;;;;;;5047395;28;20040;-77
2023/05/09 08:00:44;;;;;;;1999.90;999.90;;;16.50;99.90;;;;;;5050301;28;20079;-77
2023/05/09 08:03:09;;;;;;;1999.90;999.90;;;16.60;99.90;;;;;;5055091;28;20028;-74
2023/05/09 08:05:35;;;;;;;1999.90;999.90;;;16.60;99.90;;;;;;5052581;28;20075;-73
2023/05/09 08:08:00;;;;;;;1999.90;999.90;;;16.60;99.90;;;;;;5050616;28;20737;-76
2023/05/09 08:10:29;;;;;;;1999.90;999.90;;;16.70;99.90;;;;;;5052972;28;20035;-75
2023/05/09 08:12:55;;;;;;;1999.90;999.90;;;16.70;99.90;;;;;;5051746;28;20083;-73
2023/05/09 08:15:21;;;;;;;1999.90;999.90;;;16.70;99.90;;;;;;5051320;28;20423;-73
2023/05/09 08:17:46;;;;;;;1999.90;999.90;;;16.70;99.90;;;;;;5051338;28;20032;-76
2023/05/09 08:20:12;;;;;;;1999.90;999.90;;;16.70;99.90;;;;;;5044355;28;20029;-77
2023/05/09 08:22:39;;;;;;;1999.90;999.90;;;16.60;99.90;;;;;;5069042;28;20483;-76
2023/05/09 08:25:06;;;;;;;1999.90;999.90;;;16.70;99.90;;;;;;5057252;28;20115;-75
2023/05/09 08:27:32;;;;;;;1999.90;999.90;;;16.70;99.90;;;;;;5060506;28;20079;-76
2023/05/09 08:29:57;;;;;;;1999.90;999.90;;;16.80;99.90;;;;;;5050791;28;20060;-74
2023/05/09 08:32:23;;;;;;;1999.90;999.90;;;16.80;99.90;;;;;;5058188;28;20043;-73
2023/05/09 08:34:49;;;;;;;1999.90;999.90;;;16.80;99.90;;;;;;5050618;28;20546;-76
2023/05/09 08:37:15;;;;;;;1999.90;999.90;;;17.00;99.90;;;;;;5049439;28;20021;-76
2023/05/09 08:39:40;;;;;;;1999.90;999.90;;;17.00;99.90;;;;;;5046265;28;20024;-75
2023/05/09 08:42:08;;;;;;;1999.90;999.90;;;17.00;99.90;;;;;;5046050;28;20041;-75
2023/05/09 08:44:33;;;;;;;1999.90;999.90;;;16.80;99.90;;;;;;5049034;28;20025;-73
2023/05/09 08:47:01;;;;;;;1999.90;999.90;;;16.80;99.90;;;;;;5046886;28;20488;-74
2023/05/09 08:49:27;;;;;;;1999.90;999.90;;;16.80;99.90;;;;;;5049152;28;20033;-75
2023/05/09 08:51:53;;;;;;;1999.90;999.90;;;16.90;99.90;;;;;;5048754;28;20130;-76
2023/05/09 08:54:21;;;;;;;1999.90;999.90;;;17.00;99.90;;;;;;5048722;28;20049;-73
2023/05/09 08:56:47;;;;;;;1999.90;999.90;;;16.80;99.90;;;;;;5044341;28;20035;-75
2023/05/09 08:59:13;;;;;;;1999.90;999.90;;;16.80;99.90;;;;;;5057338;28;20024;-73
2023/05/09 09:01:39;;;;;;;1999.90;999.90;;;16.70;99.90;;;;;;5046888;28;20139;-73
2023/05/09 09:04:08;;;;;;;1999.90;999.90;;;16.70;99.90;;;;;;5051073;28;20037;-78
2023/05/09 09:06:34;;;;;;;1999.90;999.90;;;16.70;99.90;;;;;;5045743;28;20442;-74
2023/05/09 09:09:01;;;;;;;1999.90;999.90;;;16.80;99.90;;;;;;5051879;28;20484;-74
2023/05/09 09:11:29;;;;;;;1999.90;999.90;;;16.70;99.90;;;;;;5056176;28;20466;-79
2023/05/09 09:14:05;;;;;;;1999.90;999.90;;;16.90;99.90;;;;;;5049783;28;20025;-77
2023/05/09 09:16:32;;;;;;;1999.90;999.90;;;16.90;99.90;;;;;;5050711;28;20088;-72
2023/05/09 09:18:59;;;;;;;1999.90;999.90;;;17.00;99.90;;;;;;5051342;28;20025;-75
2023/05/09 09:21:26;;;;;;;1999.90;999.90;;;16.70;99.90;;;;;;5050537;28;20487;-72
2023/05/09 09:23:54;;;;;;;1999.90;999.90;;;16.60;99.90;;;;;;5058056;28;20234;-72
2023/05/09 09:26:20;;;;;;;1999.90;999.90;;;16.50;99.90;;;;;;5050707;28;20082;-78
2023/05/09 09:28:46;;;;;;;1999.90;999.90;;;16.50;99.90;;;;;;5044251;28;20029;-77
2023/05/09 09:31:22;;;;;;;1999.90;999.90;;;16.60;99.90;;;;;;5050516;28;20037;-76
2023/05/09 09:33:48;;;;;;;1999.90;999.90;;;16.60;99.90;;;;;;5051189;28;20025;-73
2023/05/09 09:36:14;;;;;;;1999.90;999.90;;;16.50;99.90;;;;;;5053526;28;20025;-78
2023/05/09 09:38:42;;;;;;;1999.90;999.90;;;16.40;99.90;;;;;;5056099;28;20705;-72
2023/05/09 09:41:11;;;;;;;1999.90;999.90;;;16.40;99.90;;;;;;5055684;28;20122;-78
2023/05/09 09:43:37;;;;;;;1999.90;999.90;;;16.20;99.90;;;;;;5049553;28;20472;-78
2023/05/09 09:46:03;;;;;;;1999.90;999.90;;;16.50;99.90;;;;;;5061582;28;20032;-79
2023/05/09 09:48:34;;;;;;;1999.90;999.90;;;16.90;99.90;;;;;;5067043;28;20094;-73
2023/05/09 09:51:10;;;;;;;1999.90;999.90;;;17.00;99.90;;;;;;5059729;28;20032;-74
2023/05/09 09:53:40;;;;;;;1999.90;999.90;;;17.80;99.90;;;;;;5050765;28;20079;-80
2023/05/09 09:56:06;;;;;;;1999.90;999.90;;;19.50;99.90;;;;;;5054243;28;20078;-80
2023/05/09 09:58:32;;;;;;;1999.90;999.90;;;20.80;99.90;;;;;;5055062;28;20032;-80
2023/05/09 10:01:06;;;;;;;1999.90;999.90;;;21.30;99.90;;;;;;5057258;28;20036;-75
2023/05/09 10:03:39;;;;;;;1999.90;999.90;;;22.00;99.90;;;;;;5043161;28;20993;-74
2023/05/09 10:06:09;;;;;;;1999.90;999.90;;;21.30;99.90;;;;;;5049558;28;20025;-78
2023/05/09 10:08:34;;;;;;;1999.90;999.90;;;22.00;99.90;;;;;;5050470;28;20036;-80
2023/05/09 10:11:00;;;;;;;1999.90;999.90;;;21.20;99.90;;;;;;5058086;28;20033;-78
2023/05/09 10:13:27;;;;;;;1999.90;999.90;;;21.80;99.90;;;;;;5053007;28;20107;-75
2023/05/09 10:15:56;;;;;;;1999.90;999.90;;;22.10;99.90;;;;;;5050221;28;20024;-79
2023/05/09 10:18:27;;;;;;;1999.90;999.90;;;22.20;99.90;;;;;;5047424;28;20025;-79
2023/05/09 10:20:53;;;;;;;1999.90;999.90;;;22.40;99.90;;;;;;5052958;28;20064;-81
2023/05/09 10:23:20;;;;;;;1999.90;999.90;;;22.70;99.90;;;;;;5054238;28;20041;-74
2023/05/09 10:25:57;;;;;;;1999.90;999.90;;;23.30;99.90;;;;;;5050587;28;20032;-75
2023/05/09 10:28:30;;;;;;;1999.90;999.90;;;22.20;99.90;;;;;;5036246;28;20037;-74
2023/05/09 10:31:02;;;;;;;1999.90;999.90;;;20.80;99.90;;;;;;5018434;28;20037;-76
2023/05/09 10:34:02;;;;;;;1999.90;999.90;;;20.80;99.90;;;;;;5031178;28;20061;-75
2023/05/09 10:36:27;;;;;;;1999.90;999.90;;;20.60;99.90;;;;;;5039107;28;20029;-78
2023/05/09 10:38:55;;;;;;;1999.90;999.90;;;20.60;99.90;;;;;;5034530;28;20028;-74
2023/05/09 10:41:22;;;;;;;1999.90;999.90;;;20.40;99.90;;;;;;5035071;28;20511;-74
2023/05/09 10:43:48;;;;;;;1999.90;999.90;;;20.80;99.90;;;;;;5061526;28;20032;-76
2023/05/09 10:46:15;;;;;;;1999.90;999.90;;;20.30;99.90;;;;;;5037940;28;20031;-79
2023/05/09 10:48:41;;;;;;;1999.90;999.90;;;20.10;99.90;;;;;;5030624;28;20033;-79
2023/05/09 10:51:08;;;;;;;1999.90;999.90;;;20.10;99.90;;;;;;5054465;28;20029;-81
2023/05/09 10:53:47;;;;;;;1999.90;999.90;;;20.60;99.90;;;;;;5033906;28;20049;-75
2023/05/09 10:56:28;;;;;;;1999.90;999.90;;;20.40;99.90;;;;;;5015113;28;20527;-75
2023/05/09 10:58:55;;;;;;;1999.90;999.90;;;20.90;99.90;;;;;;5006250;28;20393;-82
2023/05/09 11:01:38;;;;;;;1999.90;999.90;;;22.20;99.90;;;;;;5012358;28;20471;-81
2023/05/09 11:04:11;;;;;;;1999.90;999.90;;;22.80;99.90;;;;;;5017880;28;20025;-81
2023/05/09 11:06:47;;;;;;;1999.90;999.90;;;23.20;99.90;;;;;;5016506;28;20026;-75
2023/05/09 11:09:40;;;;;;;1999.90;999.90;;;23.60;99.90;;;;;;5014020;28;20104;-81
2023/05/09 11:12:13;;;;;;;1999.90;999.90;;;22.60;99.90;;;;;;5012258;28;20029;-81
2023/05/09 11:14:54;;;;;;;1999.90;999.90;;;23.20;99.90;;;;;;5009676;28;20516;-75
2023/05/09 11:17:20;;;;;;;1999.90;999.90;;;21.60;99.90;;;;;;5023667;28;20025;-80
2023/05/09 11:19:48;;;;;;;1999.90;999.90;;;21.60;99.90;;;;;;5019682;28;20029;-78
2023/05/09 11:22:26;;;;;;;1999.90;999.90;;;21.30;99.90;;;;;;5012206;28;20475;-80
2023/05/09 11:25:07;;;;;;;1999.90;999.90;;;21.10;99.90;;;;;;5034783;28;20036;-81
2023/05/09 11:27:44;;;;;;;1999.90;999.90;;;20.80;99.90;;;;;;5010346;28;20040;-80
2023/05/09 11:30:13;;;;;;;1999.90;999.90;;;20.90;99.90;;;;;;5016180;28;20124;-79
2023/05/09 11:32:46;;;;;;;1999.90;999.90;;;20.20;99.90;;;;;;5022170;28;20077;-74
2023/05/09 11:35:14;;;;;;;1999.90;999.90;;;19.60;99.90;;;;;;5028780;28;20030;-79
2023/05/09 11:37:47;;;;;;;1999.90;999.90;;;19.80;99.90;;;;;;5020310;28;20105;-78
2023/05/09 11:40:14;;;;;;;1999.90;999.90;;;20.60;99.90;;;;;;5020065;28;20050;-78
2023/05/09 11:42:48;;;;;;;1999.90;999.90;;;21.20;99.90;;;;;;5012585;28;20481;-79
2023/05/09 11:45:15;;;;;;;1999.90;999.90;;;21.00;99.90;;;;;;5016034;28;20080;-72
2023/05/09 11:47:41;;;;;;;1999.90;999.90;;;20.90;99.90;;;;;;5025714;28;20458;-76
2023/05/09 11:50:08;;;;;;;1999.90;999.90;;;21.10;99.90;;;;;;5013286;28;20029;-73
2023/05/09 11:52:34;;;;;;;1999.90;999.90;;;20.80;99.90;;;;;;5010362;28;20457;-78
2023/05/09 11:55:00;;;;;;;1999.90;999.90;;;20.60;99.90;;;;;;5011478;28;20453;-78
2023/05/09 11:57:27;;;;;;;1999.90;999.90;;;21.00;99.90;;;;;;5014211;28;20029;-74
2023/05/09 11:59:53;;;;;;;1999.90;999.90;;;21.40;99.90;;;;;;5014977;28;20034;-74